sensor_id;sensor_type;location;lat;lon;timestamp;temperature;humidity
6627;DHT22;3349;49.830;8.748;2023-12-20T00:01:26;4.80;99.90
6627;DHT22;3349;49.830;8.748;2023-12-20T00:03:53;4.70;99.90
6627;DHT22;3349;49.830;8.748;2023-12-20T00:06:19;4.70;99.90
6627;DHT22;3349;49.830;8.748;2023-12-20T00:08:46;4.70;99.90
6627;DHT22;3349;49.830;8.748;2023-12-20T00:11:13;4.70;99.90
6627;DHT22;3349;49.830;8.748;2023-12-20T00:13:41;4.70;99.90
6627;DHT22;3349;49.830;8.748;2023-12-20T00:16:08;4.70;99.90
6627;DHT22;3349;49.830;8.748;2023-12-20T00:18:34;4.70;99.90
6627;DHT22;3349;49.830;8.748;2023-12-20T00:21:01;4.70;99.90
6627;DHT22;3349;49.830;8.748;2023-12-20T00:23:27;4.70;99.90
6627;DHT22;3349;49.830;8.748;2023-12-20T00:25:54;4.70;99.90
6627;DHT22;3349;49.830;8.748;2023-12-20T00:28:21;4.70;99.90
6627;DHT22;3349;49.830;8.748;2023-12-20T00:30:49;4.70;99.90
6627;DHT22;3349;49.830;8.748;2023-12-20T00:33:16;4.70;99.90
6627;DHT22;3349;49.830;8.748;2023-12-20T00:35:42;4.70;99.90
6627;DHT22;3349;49.830;8.748;2023-12-20T00:38:09;4.70;99.90
6627;DHT22;3349;49.830;8.748;2023-12-20T00:40:36;4.70;99.90
6627;DHT22;3349;49.830;8.748;2023-12-20T00:43:03;4.70;99.90
6627;DHT22;3349;49.830;8.748;2023-12-20T00:45:30;4.70;99.90
6627;DHT22;3349;49.830;8.748;2023-12-20T00:47:58;4.70;99.90
6627;DHT22;3349;49.830;8.748;2023-12-20T00:50:25;4.60;99.90
6627;DHT22;3349;49.830;8.748;2023-12-20T00:52:52;4.60;99.90
6627;DHT22;3349;49.830;8.748;2023-12-20T00:55:20;4.70;99.90
6627;DHT22;3349;49.830;8.748;2023-12-20T00:57:46;4.70;99.90
6627;DHT22;3349;49.830;8.748;2023-12-20T01:00:14;4.60;99.90
6627;DHT22;3349;49.830;8.748;2023-12-20T01:02:41;4.60;99.90
6627;DHT22;3349;49.830;8.748;2023-12-20T01:05:09;4.60;99.90
6627;DHT22;3349;49.830;8.748;2023-12-20T01:07:35;4.60;99.90
6627;DHT22;3349;49.830;8.748;2023-12-20T01:10:02;4.60;99.90
6627;DHT22;3349;49.830;8.748;2023-12-20T01:12:29;4.60;99.90
6627;DHT22;3349;49.830;8.748;2023-12-20T01:14:56;4.60;99.90
6627;DHT22;3349;49.830;8.748;2023-12-20T01:17:24;4.60;99.90
6627;DHT22;3349;49.830;8.748;2023-12-20T01:19:50;4.60;99.90
6627;DHT22;3349;49.830;8.748;2023-12-20T01:22:18;4.60;99.90
6627;DHT22;3349;49.830;8.748;2023-12-20T01:24:45;4.60;99.90
6627;DHT22;3349;49.830;8.748;2023-12-20T01:27:12;4.60;99.90
6627;DHT22;3349;49.830;8.748;2023-12-20T01:29:38;4.60;99.90
6627;DHT22;3349;49.830;8.748;2023-12-20T01:32:05;4.60;99.90
6627;DHT22;3349;49.830;8.748;2023-12-20T01:34:32;4.50;99.90
6627;DHT22;3349;49.830;8.748;2023-12-20T01:36:59;4.50;99.90
6627;DHT22;3349;49.830;8.748;2023-12-20T01:39:27;4.50;99.90
6627;DHT22;3349;49.830;8.748;2023-12-20T01:41:53;4.50;99.90
6627;DHT22;3349;49.830;8.748;2023-12-20T01:44:20;4.40;99.90
6627;DHT22;3349;49.830;8.748;2023-12-20T01:46:47;4.40;99.90
6627;DHT22;3349;49.830;8.748;2023-12-20T01:49:15;4.50;99.90
6627;DHT22;3349;49.830;8.748;2023-12-20T01:51:42;4.50;99.90
6627;DHT22;3349;49.830;8.748;2023-12-20T01:54:09;4.50;99.90
6627;DHT22;3349;49.830;8.748;2023-12-20T01:56:37;4.50;99.90
6627;DHT22;3349;49.830;8.748;2023-12-20T01:59:04;4.50;99.90
6627;DHT22;3349;49.830;8.748;2023-12-20T02:01:31;4.40;99.90
6627;DHT22;3349;49.830;8.748;2023-12-20T02:03:59;4.40;99.90
6627;DHT22;3349;49.830;8.748;2023-12-20T02:06:30;4.50;99.90
6627;DHT22;3349;49.830;8.748;2023-12-20T02:08:57;4.50;99.90
6627;DHT22;3349;49.830;8.748;2023-12-20T02:11:24;4.40;99.90
6627;DHT22;3349;49.830;8.748;2023-12-20T02:13:53;4.40;99.90
6627;DHT22;3349;49.830;8.748;2023-12-20T02:16:19;4.40;99.90
6627;DHT22;3349;49.830;8.748;2023-12-20T02:18:47;4.40;99.90
6627;DHT22;3349;49.830;8.748;2023-12-20T02:21:14;4.40;99.90
6627;DHT22;3349;49.830;8.748;2023-12-20T02:23:42;4.50;99.90
6627;DHT22;3349;49.830;8.748;2023-12-20T02:26:09;4.40;99.90
6627;DHT22;3349;49.830;8.748;2023-12-20T02:28:36;4.40;99.90
6627;DHT22;3349;49.830;8.748;2023-12-20T02:31:03;4.40;99.90
6627;DHT22;3349;49.830;8.748;2023-12-20T02:33:30;4.40;99.90
6627;DHT22;3349;49.830;8.748;2023-12-20T02:35:56;4.40;99.90
6627;DHT22;3349;49.830;8.748;2023-12-20T02:38:23;4.40;99.90
6627;DHT22;3349;49.830;8.748;2023-12-20T02:40:51;4.40;99.90
6627;DHT22;3349;49.830;8.748;2023-12-20T02:43:18;4.40;99.90
6627;DHT22;3349;49.830;8.748;2023-12-20T02:45:44;4.40;99.90
6627;DHT22;3349;49.830;8.748;2023-12-20T02:48:11;4.50;99.90
6627;DHT22;3349;49.830;8.748;2023-12-20T02:50:38;4.40;99.90
6627;DHT22;3349;49.830;8.748;2023-12-20T02:53:04;4.40;99.90
6627;DHT22;3349;49.830;8.748;2023-12-20T02:55:31;4.40;99.90
6627;DHT22;3349;49.830;8.748;2023-12-20T02:57:59;4.50;99.90
6627;DHT22;3349;49.830;8.748;2023-12-20T03:00:25;4.40;99.90
6627;DHT22;3349;49.830;8.748;2023-12-20T03:02:52;4.40;99.90
6627;DHT22;3349;49.830;8.748;2023-12-20T03:05:19;4.50;99.90
6627;DHT22;3349;49.830;8.748;2023-12-20T03:07:46;4.40;99.90
6627;DHT22;3349;49.830;8.748;2023-12-20T03:10:12;4.40;99.90
6627;DHT22;3349;49.830;8.748;2023-12-20T03:12:39;4.40;99.90
6627;DHT22;3349;49.830;8.748;2023-12-20T03:15:08;4.40;99.90
6627;DHT22;3349;49.830;8.748;2023-12-20T03:17:35;4.40;99.90
6627;DHT22;3349;49.830;8.748;2023-12-20T03:20:02;4.50;99.90
6627;DHT22;3349;49.830;8.748;2023-12-20T03:22:28;4.50;99.90
6627;DHT22;3349;49.830;8.748;2023-12-20T03:24:55;4.50;99.90
6627;DHT22;3349;49.830;8.748;2023-12-20T03:27:22;4.50;99.90
6627;DHT22;3349;49.830;8.748;2023-12-20T03:29:48;4.60;99.90
6627;DHT22;3349;49.830;8.748;2023-12-20T03:32:17;4.60;99.90
6627;DHT22;3349;49.830;8.748;2023-12-20T03:34:43;4.60;99.90
6627;DHT22;3349;49.830;8.748;2023-12-20T03:37:10;4.60;99.90
6627;DHT22;3349;49.830;8.748;2023-12-20T03:39:37;4.60;99.90
6627;DHT22;3349;49.830;8.748;2023-12-20T03:42:04;4.60;99.90
6627;DHT22;3349;49.830;8.748;2023-12-20T03:44:30;4.60;99.90
6627;DHT22;3349;49.830;8.748;2023-12-20T03:46:57;4.60;99.90
6627;DHT22;3349;49.830;8.748;2023-12-20T03:49:25;4.70;99.90
6627;DHT22;3349;49.830;8.748;2023-12-20T03:51:51;4.70;99.90
6627;DHT22;3349;49.830;8.748;2023-12-20T03:54:18;4.70;99.90
6627;DHT22;3349;49.830;8.748;2023-12-20T03:56:45;4.70;99.90
6627;DHT22;3349;49.830;8.748;2023-12-20T03:59:11;4.70;99.90
6627;DHT22;3349;49.830;8.748;2023-12-20T04:01:38;4.70;99.90
6627;DHT22;3349;49.830;8.748;2023-12-20T04:04:05;4.70;99.90
6627;DHT22;3349;49.830;8.748;2023-12-20T04:06:33;4.70;99.90
6627;DHT22;3349;49.830;8.748;2023-12-20T04:08:59;4.80;99.90
6627;DHT22;3349;49.830;8.748;2023-12-20T04:11:26;4.80;99.90
6627;DHT22;3349;49.830;8.748;2023-12-20T04:13:53;4.80;99.90
6627;DHT22;3349;49.830;8.748;2023-12-20T04:16:19;4.80;99.90
6627;DHT22;3349;49.830;8.748;2023-12-20T04:18:46;4.80;99.90
6627;DHT22;3349;49.830;8.748;2023-12-20T04:21:13;4.90;99.90
6627;DHT22;3349;49.830;8.748;2023-12-20T04:23:41;4.80;99.90
6627;DHT22;3349;49.830;8.748;2023-12-20T04:26:07;4.80;99.90
6627;DHT22;3349;49.830;8.748;2023-12-20T04:28:34;4.80;99.90
6627;DHT22;3349;49.830;8.748;2023-12-20T04:31:01;4.80;99.90
6627;DHT22;3349;49.830;8.748;2023-12-20T04:33:27;4.80;99.90
6627;DHT22;3349;49.830;8.748;2023-12-20T04:35:54;4.80;99.90
6627;DHT22;3349;49.830;8.748;2023-12-20T04:38:21;4.80;99.90
6627;DHT22;3349;49.830;8.748;2023-12-20T04:40:49;4.80;99.90
6627;DHT22;3349;49.830;8.748;2023-12-20T04:43:15;4.90;99.90
6627;DHT22;3349;49.830;8.748;2023-12-20T04:45:42;4.90;99.90
6627;DHT22;3349;49.830;8.748;2023-12-20T04:48:08;4.90;99.90
6627;DHT22;3349;49.830;8.748;2023-12-20T04:50:35;4.90;99.90
6627;DHT22;3349;49.830;8.748;2023-12-20T04:53:02;4.90;99.90
6627;DHT22;3349;49.830;8.748;2023-12-20T04:55:28;4.90;99.90
6627;DHT22;3349;49.830;8.748;2023-12-20T04:57:57;4.90;99.90
6627;DHT22;3349;49.830;8.748;2023-12-20T05:00:24;4.90;99.90
6627;DHT22;3349;49.830;8.748;2023-12-20T05:02:50;5.00;99.90
6627;DHT22;3349;49.830;8.748;2023-12-20T05:05:17;5.00;99.90
6627;DHT22;3349;49.830;8.748;2023-12-20T05:07:44;4.90;99.90
6627;DHT22;3349;49.830;8.748;2023-12-20T05:10:10;5.00;99.90
6627;DHT22;3349;49.830;8.748;2023-12-20T05:12:37;4.90;99.90
6627;DHT22;3349;49.830;8.748;2023-12-20T05:15:06;5.00;99.90
6627;DHT22;3349;49.830;8.748;2023-12-20T05:17:33;5.00;99.90
6627;DHT22;3349;49.830;8.748;2023-12-20T05:20:00;4.90;99.90
6627;DHT22;3349;49.830;8.748;2023-12-20T05:22:27;4.80;99.90
6627;DHT22;3349;49.830;8.748;2023-12-20T05:24:53;4.80;99.90
6627;DHT22;3349;49.830;8.748;2023-12-20T05:27:20;4.70;99.90
6627;DHT22;3349;49.830;8.748;2023-12-20T05:29:47;4.70;99.90
6627;DHT22;3349;49.830;8.748;2023-12-20T05:32:16;4.70;99.90
6627;DHT22;3349;49.830;8.748;2023-12-20T05:34:43;4.70;99.90
6627;DHT22;3349;49.830;8.748;2023-12-20T05:37:10;4.70;99.90
6627;DHT22;3349;49.830;8.748;2023-12-20T05:39:36;4.70;99.90
6627;DHT22;3349;49.830;8.748;2023-12-20T05:42:04;4.60;99.90
6627;DHT22;3349;49.830;8.748;2023-12-20T05:44:30;4.60;99.90
6627;DHT22;3349;49.830;8.748;2023-12-20T05:46:57;4.60;99.90
6627;DHT22;3349;49.830;8.748;2023-12-20T05:49:25;4.60;99.90
6627;DHT22;3349;49.830;8.748;2023-12-20T05:51:52;4.60;99.90
6627;DHT22;3349;49.830;8.748;2023-12-20T05:54:19;4.60;99.90
6627;DHT22;3349;49.830;8.748;2023-12-20T05:56:47;4.60;99.90
6627;DHT22;3349;49.830;8.748;2023-12-20T05:59:13;4.70;99.90
6627;DHT22;3349;49.830;8.748;2023-12-20T06:01:40;4.60;99.90
6627;DHT22;3349;49.830;8.748;2023-12-20T06:04:07;4.70;99.90
6627;DHT22;3349;49.830;8.748;2023-12-20T06:06:39;4.70;99.90
6627;DHT22;3349;49.830;8.748;2023-12-20T06:09:06;4.60;99.90
6627;DHT22;3349;49.830;8.748;2023-12-20T06:11:33;4.50;99.90
6627;DHT22;3349;49.830;8.748;2023-12-20T06:13:59;4.40;99.90
6627;DHT22;3349;49.830;8.748;2023-12-20T06:16:26;4.40;99.90
6627;DHT22;3349;49.830;8.748;2023-12-20T06:18:53;4.30;99.90
6627;DHT22;3349;49.830;8.748;2023-12-20T06:21:19;4.20;99.90
6627;DHT22;3349;49.830;8.748;2023-12-20T06:23:47;4.20;99.90
6627;DHT22;3349;49.830;8.748;2023-12-20T06:26:14;4.20;99.90
6627;DHT22;3349;49.830;8.748;2023-12-20T06:28:41;4.20;99.90
6627;DHT22;3349;49.830;8.748;2023-12-20T06:31:08;4.10;99.90
6627;DHT22;3349;49.830;8.748;2023-12-20T06:33:34;4.20;99.90
6627;DHT22;3349;49.830;8.748;2023-12-20T06:36:01;4.10;99.90
6627;DHT22;3349;49.830;8.748;2023-12-20T06:38:28;4.10;99.90
6627;DHT22;3349;49.830;8.748;2023-12-20T06:40:56;4.10;99.90
6627;DHT22;3349;49.830;8.748;2023-12-20T06:43:24;4.10;99.90
6627;DHT22;3349;49.830;8.748;2023-12-20T06:45:50;4.00;99.90
6627;DHT22;3349;49.830;8.748;2023-12-20T06:48:17;4.00;99.90
6627;DHT22;3349;49.830;8.748;2023-12-20T06:50:44;3.90;99.90
6627;DHT22;3349;49.830;8.748;2023-12-20T06:53:10;3.80;99.90
6627;DHT22;3349;49.830;8.748;2023-12-20T06:55:37;3.80;99.90
6627;DHT22;3349;49.830;8.748;2023-12-20T06:58:05;3.80;99.90
6627;DHT22;3349;49.830;8.748;2023-12-20T07:00:32;3.70;99.90
6627;DHT22;3349;49.830;8.748;2023-12-20T07:02:59;3.70;99.90
6627;DHT22;3349;49.830;8.748;2023-12-20T07:05:26;3.70;99.90
6627;DHT22;3349;49.830;8.748;2023-12-20T07:07:53;3.60;99.90
6627;DHT22;3349;49.830;8.748;2023-12-20T07:10:20;3.50;99.90
6627;DHT22;3349;49.830;8.748;2023-12-20T07:12:46;3.50;99.90
6627;DHT22;3349;49.830;8.748;2023-12-20T07:15:15;3.60;99.90
6627;DHT22;3349;49.830;8.748;2023-12-20T07:17:42;3.60;99.90
6627;DHT22;3349;49.830;8.748;2023-12-20T07:20:10;3.60;99.90
6627;DHT22;3349;49.830;8.748;2023-12-20T07:22:37;3.60;99.90
6627;DHT22;3349;49.830;8.748;2023-12-20T07:25:04;3.60;99.90
6627;DHT22;3349;49.830;8.748;2023-12-20T07:27:31;3.60;99.90
6627;DHT22;3349;49.830;8.748;2023-12-20T07:29:57;3.60;99.90
6627;DHT22;3349;49.830;8.748;2023-12-20T07:32:26;3.60;99.90
6627;DHT22;3349;49.830;8.748;2023-12-20T07:34:52;3.70;99.90
6627;DHT22;3349;49.830;8.748;2023-12-20T07:37:20;3.70;99.90
6627;DHT22;3349;49.830;8.748;2023-12-20T07:39:46;3.70;99.90
6627;DHT22;3349;49.830;8.748;2023-12-20T07:42:13;3.70;99.90
6627;DHT22;3349;49.830;8.748;2023-12-20T07:44:40;3.80;99.90
6627;DHT22;3349;49.830;8.748;2023-12-20T07:47:06;3.80;99.90
6627;DHT22;3349;49.830;8.748;2023-12-20T07:49:34;3.80;99.90
6627;DHT22;3349;49.830;8.748;2023-12-20T07:52:01;3.80;99.90
6627;DHT22;3349;49.830;8.748;2023-12-20T07:54:28;3.80;99.90
6627;DHT22;3349;49.830;8.748;2023-12-20T07:56:55;3.90;99.90
6627;DHT22;3349;49.830;8.748;2023-12-20T07:59:22;4.00;99.90
6627;DHT22;3349;49.830;8.748;2023-12-20T08:01:48;4.00;99.90
6627;DHT22;3349;49.830;8.748;2023-12-20T08:04:15;4.10;99.90
6627;DHT22;3349;49.830;8.748;2023-12-20T08:06:43;4.20;99.90
6627;DHT22;3349;49.830;8.748;2023-12-20T08:09:10;4.30;99.90
6627;DHT22;3349;49.830;8.748;2023-12-20T08:11:36;4.30;99.90
6627;DHT22;3349;49.830;8.748;2023-12-20T08:14:03;4.40;99.90
6627;DHT22;3349;49.830;8.748;2023-12-20T08:16:30;4.40;99.90
6627;DHT22;3349;49.830;8.748;2023-12-20T08:18:56;4.40;99.90
6627;DHT22;3349;49.830;8.748;2023-12-20T08:21:23;4.50;99.90
6627;DHT22;3349;49.830;8.748;2023-12-20T08:23:51;4.50;99.90
6627;DHT22;3349;49.830;8.748;2023-12-20T08:26:19;4.60;99.90
6627;DHT22;3349;49.830;8.748;2023-12-20T08:28:48;4.60;99.90
6627;DHT22;3349;49.830;8.748;2023-12-20T08:31:15;4.60;99.90
6627;DHT22;3349;49.830;8.748;2023-12-20T08:33:43;4.60;99.90
6627;DHT22;3349;49.830;8.748;2023-12-20T08:36:10;4.60;99.90
6627;DHT22;3349;49.830;8.748;2023-12-20T08:38:36;4.80;99.90
6627;DHT22;3349;49.830;8.748;2023-12-20T08:41:04;4.90;99.90
6627;DHT22;3349;49.830;8.748;2023-12-20T08:43:32;5.00;99.90
6627;DHT22;3349;49.830;8.748;2023-12-20T08:45:58;5.00;99.90
6627;DHT22;3349;49.830;8.748;2023-12-20T08:48:25;5.00;99.90
6627;DHT22;3349;49.830;8.748;2023-12-20T08:50:52;5.10;99.90
6627;DHT22;3349;49.830;8.748;2023-12-20T08:53:18;5.20;98.80
6627;DHT22;3349;49.830;8.748;2023-12-20T08:55:45;5.30;97.70
6627;DHT22;3349;49.830;8.748;2023-12-20T08:58:13;5.30;96.80
6627;DHT22;3349;49.830;8.748;2023-12-20T09:00:40;5.40;96.90
6627;DHT22;3349;49.830;8.748;2023-12-20T09:03:07;5.40;96.70
6627;DHT22;3349;49.830;8.748;2023-12-20T09:05:33;5.40;95.70
6627;DHT22;3349;49.830;8.748;2023-12-20T09:08:00;5.40;95.50
6627;DHT22;3349;49.830;8.748;2023-12-20T09:10:27;5.50;95.50
6627;DHT22;3349;49.830;8.748;2023-12-20T09:12:54;5.50;93.80
6627;DHT22;3349;49.830;8.748;2023-12-20T09:15:23;5.60;94.20
6627;DHT22;3349;49.830;8.748;2023-12-20T09:17:50;5.60;93.00
6627;DHT22;3349;49.830;8.748;2023-12-20T09:20:17;5.70;92.70
6627;DHT22;3349;49.830;8.748;2023-12-20T09:22:43;5.70;92.70
6627;DHT22;3349;49.830;8.748;2023-12-20T09:25:10;5.70;93.40
6627;DHT22;3349;49.830;8.748;2023-12-20T09:27:38;5.80;93.40
6627;DHT22;3349;49.830;8.748;2023-12-20T09:30:05;5.80;93.20
6627;DHT22;3349;49.830;8.748;2023-12-20T09:32:34;5.80;92.70
6627;DHT22;3349;49.830;8.748;2023-12-20T09:35:00;5.80;92.90
6627;DHT22;3349;49.830;8.748;2023-12-20T09:37:27;5.80;93.50
6627;DHT22;3349;49.830;8.748;2023-12-20T09:39:54;5.90;93.10
6627;DHT22;3349;49.830;8.748;2023-12-20T09:42:25;5.90;93.10
6627;DHT22;3349;49.830;8.748;2023-12-20T09:44:56;5.90;92.80
6627;DHT22;3349;49.830;8.748;2023-12-20T09:47:25;5.90;93.10
6627;DHT22;3349;49.830;8.748;2023-12-20T09:49:54;5.90;94.20
6627;DHT22;3349;49.830;8.748;2023-12-20T09:52:22;5.90;93.10
6627;DHT22;3349;49.830;8.748;2023-12-20T09:54:52;5.90;93.70
6627;DHT22;3349;49.830;8.748;2023-12-20T09:57:20;6.00;93.50
6627;DHT22;3349;49.830;8.748;2023-12-20T09:59:47;6.00;94.20
6627;DHT22;3349;49.830;8.748;2023-12-20T10:02:14;6.00;93.90
6627;DHT22;3349;49.830;8.748;2023-12-20T10:04:46;6.00;94.10
6627;DHT22;3349;49.830;8.748;2023-12-20T10:07:14;5.90;93.80
6627;DHT22;3349;49.830;8.748;2023-12-20T10:09:42;5.90;94.30
6627;DHT22;3349;49.830;8.748;2023-12-20T10:12:09;5.90;94.50
6627;DHT22;3349;49.830;8.748;2023-12-20T10:14:35;5.90;94.30
6627;DHT22;3349;49.830;8.748;2023-12-20T10:17:03;6.00;94.40
6627;DHT22;3349;49.830;8.748;2023-12-20T10:19:29;6.00;95.00
6627;DHT22;3349;49.830;8.748;2023-12-20T10:21:57;6.00;94.50
6627;DHT22;3349;49.830;8.748;2023-12-20T10:24:28;6.00;94.90
6627;DHT22;3349;49.830;8.748;2023-12-20T10:27:02;6.10;94.80
6627;DHT22;3349;49.830;8.748;2023-12-20T10:29:32;6.00;95.00
6627;DHT22;3349;49.830;8.748;2023-12-20T10:31:59;6.10;94.50
6627;DHT22;3349;49.830;8.748;2023-12-20T10:34:26;6.10;93.80
6627;DHT22;3349;49.830;8.748;2023-12-20T10:36:52;6.20;93.30
6627;DHT22;3349;49.830;8.748;2023-12-20T10:39:20;6.20;92.00
6627;DHT22;3349;49.830;8.748;2023-12-20T10:41:49;6.10;90.80
6627;DHT22;3349;49.830;8.748;2023-12-20T10:44:16;6.10;90.80
6627;DHT22;3349;49.830;8.748;2023-12-20T10:46:43;6.10;91.60
6627;DHT22;3349;49.830;8.748;2023-12-20T10:49:17;6.10;91.80
6627;DHT22;3349;49.830;8.748;2023-12-20T10:51:46;6.10;91.40
6627;DHT22;3349;49.830;8.748;2023-12-20T10:54:14;6.20;91.40
6627;DHT22;3349;49.830;8.748;2023-12-20T10:56:40;6.20;91.80
6627;DHT22;3349;49.830;8.748;2023-12-20T10:59:10;6.20;91.20
6627;DHT22;3349;49.830;8.748;2023-12-20T11:01:38;6.30;90.20
6627;DHT22;3349;49.830;8.748;2023-12-20T11:04:10;6.30;88.30
6627;DHT22;3349;49.830;8.748;2023-12-20T11:06:46;6.20;88.90
6627;DHT22;3349;49.830;8.748;2023-12-20T11:09:19;6.20;88.90
6627;DHT22;3349;49.830;8.748;2023-12-20T11:12:02;6.30;89.00
6627;DHT22;3349;49.830;8.748;2023-12-20T11:14:39;6.30;89.00
6627;DHT22;3349;49.830;8.748;2023-12-20T11:17:08;6.30;90.10
6627;DHT22;3349;49.830;8.748;2023-12-20T11:19:37;6.30;90.20
6627;DHT22;3349;49.830;8.748;2023-12-20T11:22:04;6.30;90.70
6627;DHT22;3349;49.830;8.748;2023-12-20T11:24:32;6.30;91.00
6627;DHT22;3349;49.830;8.748;2023-12-20T11:27:00;6.30;90.80
6627;DHT22;3349;49.830;8.748;2023-12-20T11:29:33;6.30;90.90
6627;DHT22;3349;49.830;8.748;2023-12-20T11:32:01;6.30;90.80
6627;DHT22;3349;49.830;8.748;2023-12-20T11:34:29;6.30;90.30
6627;DHT22;3349;49.830;8.748;2023-12-20T11:36:58;6.20;90.90
6627;DHT22;3349;49.830;8.748;2023-12-20T11:39:26;6.10;90.90
6627;DHT22;3349;49.830;8.748;2023-12-20T11:41:54;6.10;91.30
6627;DHT22;3349;49.830;8.748;2023-12-20T11:44:21;6.10;91.60
6627;DHT22;3349;49.830;8.748;2023-12-20T11:46:49;6.10;91.60
6627;DHT22;3349;49.830;8.748;2023-12-20T11:49:16;6.10;92.40
6627;DHT22;3349;49.830;8.748;2023-12-20T11:51:44;6.10;92.80
6627;DHT22;3349;49.830;8.748;2023-12-20T11:54:10;6.20;92.90
6627;DHT22;3349;49.830;8.748;2023-12-20T11:56:37;6.20;92.70
6627;DHT22;3349;49.830;8.748;2023-12-20T11:59:04;6.20;92.60
6627;DHT22;3349;49.830;8.748;2023-12-20T12:01:31;6.30;92.20
6627;DHT22;3349;49.830;8.748;2023-12-20T12:04:06;6.30;91.80
6627;DHT22;3349;49.830;8.748;2023-12-20T12:06:33;6.30;92.40
6627;DHT22;3349;49.830;8.748;2023-12-20T12:09:00;6.20;92.10
6627;DHT22;3349;49.830;8.748;2023-12-20T12:11:26;6.30;92.30
6627;DHT22;3349;49.830;8.748;2023-12-20T12:13:53;6.20;92.80
6627;DHT22;3349;49.830;8.748;2023-12-20T12:16:20;6.20;92.90
6627;DHT22;3349;49.830;8.748;2023-12-20T12:18:55;6.10;93.40
6627;DHT22;3349;49.830;8.748;2023-12-20T12:21:23;6.10;93.90
6627;DHT22;3349;49.830;8.748;2023-12-20T12:23:50;6.10;94.00
6627;DHT22;3349;49.830;8.748;2023-12-20T12:26:16;6.00;94.20
6627;DHT22;3349;49.830;8.748;2023-12-20T12:28:43;6.00;95.00
6627;DHT22;3349;49.830;8.748;2023-12-20T12:31:13;5.90;94.80
6627;DHT22;3349;49.830;8.748;2023-12-20T12:33:41;5.90;95.00
6627;DHT22;3349;49.830;8.748;2023-12-20T12:36:09;5.90;95.00
6627;DHT22;3349;49.830;8.748;2023-12-20T12:38:38;5.90;95.30
6627;DHT22;3349;49.830;8.748;2023-12-20T12:41:04;6.00;94.40
6627;DHT22;3349;49.830;8.748;2023-12-20T12:43:32;6.00;95.10
6627;DHT22;3349;49.830;8.748;2023-12-20T12:45:59;6.10;94.40
6627;DHT22;3349;49.830;8.748;2023-12-20T12:48:26;6.10;94.90
6627;DHT22;3349;49.830;8.748;2023-12-20T12:50:53;6.10;93.10
6627;DHT22;3349;49.830;8.748;2023-12-20T12:53:24;6.30;92.60
6627;DHT22;3349;49.830;8.748;2023-12-20T12:55:52;6.40;92.20
6627;DHT22;3349;49.830;8.748;2023-12-20T12:58:19;6.60;91.50
6627;DHT22;3349;49.830;8.748;2023-12-20T13:00:46;6.60;91.60
6627;DHT22;3349;49.830;8.748;2023-12-20T13:03:12;6.70;91.00
6627;DHT22;3349;49.830;8.748;2023-12-20T13:05:39;6.70;90.90
6627;DHT22;3349;49.830;8.748;2023-12-20T13:08:06;6.80;91.10
6627;DHT22;3349;49.830;8.748;2023-12-20T13:10:33;6.80;90.80
6627;DHT22;3349;49.830;8.748;2023-12-20T13:13:01;6.80;90.20
6627;DHT22;3349;49.830;8.748;2023-12-20T13:15:29;6.80;90.50
6627;DHT22;3349;49.830;8.748;2023-12-20T13:17:56;6.70;90.10
6627;DHT22;3349;49.830;8.748;2023-12-20T13:20:23;6.70;90.50
6627;DHT22;3349;49.830;8.748;2023-12-20T13:22:49;6.60;89.30
6627;DHT22;3349;49.830;8.748;2023-12-20T13:25:16;6.60;89.30
6627;DHT22;3349;49.830;8.748;2023-12-20T13:27:43;6.70;89.40
6627;DHT22;3349;49.830;8.748;2023-12-20T13:30:12;6.80;89.70
6627;DHT22;3349;49.830;8.748;2023-12-20T13:32:38;6.80;88.60
6627;DHT22;3349;49.830;8.748;2023-12-20T13:35:06;6.80;88.60
6627;DHT22;3349;49.830;8.748;2023-12-20T13:37:32;6.90;87.70
6627;DHT22;3349;49.830;8.748;2023-12-20T13:39:59;6.90;87.50
6627;DHT22;3349;49.830;8.748;2023-12-20T13:42:26;6.90;86.70
6627;DHT22;3349;49.830;8.748;2023-12-20T13:44:53;6.90;86.60
6627;DHT22;3349;49.830;8.748;2023-12-20T13:47:21;7.00;85.70
6627;DHT22;3349;49.830;8.748;2023-12-20T13:49:48;7.00;83.70
6627;DHT22;3349;49.830;8.748;2023-12-20T13:52:14;7.00;84.10
6627;DHT22;3349;49.830;8.748;2023-12-20T13:54:41;6.90;85.00
6627;DHT22;3349;49.830;8.748;2023-12-20T13:57:08;6.80;85.20
6627;DHT22;3349;49.830;8.748;2023-12-20T13:59:35;6.70;85.70
6627;DHT22;3349;49.830;8.748;2023-12-20T14:02:01;6.70;86.60
6627;DHT22;3349;49.830;8.748;2023-12-20T14:04:30;6.70;86.50
6627;DHT22;3349;49.830;8.748;2023-12-20T14:06:57;6.60;85.90
6627;DHT22;3349;49.830;8.748;2023-12-20T14:09:24;6.60;86.40
6627;DHT22;3349;49.830;8.748;2023-12-20T14:11:50;6.50;87.40
6627;DHT22;3349;49.830;8.748;2023-12-20T14:14:17;6.50;87.10
6627;DHT22;3349;49.830;8.748;2023-12-20T14:16:44;6.40;87.70
6627;DHT22;3349;49.830;8.748;2023-12-20T14:19:11;6.50;89.00
6627;DHT22;3349;49.830;8.748;2023-12-20T14:21:39;6.40;89.10
6627;DHT22;3349;49.830;8.748;2023-12-20T14:24:06;6.30;89.00
6627;DHT22;3349;49.830;8.748;2023-12-20T14:26:33;6.30;89.60
6627;DHT22;3349;49.830;8.748;2023-12-20T14:28:59;6.30;90.10
6627;DHT22;3349;49.830;8.748;2023-12-20T14:31:26;6.30;90.20
6627;DHT22;3349;49.830;8.748;2023-12-20T14:33:53;6.20;90.10
6627;DHT22;3349;49.830;8.748;2023-12-20T14:36:19;6.20;90.40
6627;DHT22;3349;49.830;8.748;2023-12-20T14:38:47;6.20;90.90
6627;DHT22;3349;49.830;8.748;2023-12-20T14:41:15;6.20;90.70
6627;DHT22;3349;49.830;8.748;2023-12-20T14:43:42;6.20;90.70
6627;DHT22;3349;49.830;8.748;2023-12-20T14:46:09;6.20;90.80
6627;DHT22;3349;49.830;8.748;2023-12-20T14:48:36;6.30;90.10
6627;DHT22;3349;49.830;8.748;2023-12-20T14:51:03;6.20;90.30
6627;DHT22;3349;49.830;8.748;2023-12-20T14:53:29;6.20;89.40
6627;DHT22;3349;49.830;8.748;2023-12-20T14:55:58;6.30;90.30
6627;DHT22;3349;49.830;8.748;2023-12-20T14:58:24;6.30;90.10
6627;DHT22;3349;49.830;8.748;2023-12-20T15:00:52;6.30;90.40
6627;DHT22;3349;49.830;8.748;2023-12-20T15:03:18;6.30;90.60
6627;DHT22;3349;49.830;8.748;2023-12-20T15:05:45;6.20;90.40
6627;DHT22;3349;49.830;8.748;2023-12-20T15:08:13;6.20;90.20
6627;DHT22;3349;49.830;8.748;2023-12-20T15:10:40;6.20;90.40
6627;DHT22;3349;49.830;8.748;2023-12-20T15:13:08;6.20;90.40
6627;DHT22;3349;49.830;8.748;2023-12-20T15:15:34;6.20;90.10
6627;DHT22;3349;49.830;8.748;2023-12-20T15:18:03;6.20;90.20
6627;DHT22;3349;49.830;8.748;2023-12-20T15:20:30;6.20;90.50
6627;DHT22;3349;49.830;8.748;2023-12-20T15:22:58;6.10;90.70
6627;DHT22;3349;49.830;8.748;2023-12-20T15:25:30;6.10;90.20
6627;DHT22;3349;49.830;8.748;2023-12-20T15:27:57;6.20;90.20
6627;DHT22;3349;49.830;8.748;2023-12-20T15:30:25;6.10;90.10
6627;DHT22;3349;49.830;8.748;2023-12-20T15:32:50;6.10;90.80
6627;DHT22;3349;49.830;8.748;2023-12-20T15:35:17;6.10;90.90
6627;DHT22;3349;49.830;8.748;2023-12-20T15:37:44;6.10;90.70
6627;DHT22;3349;49.830;8.748;2023-12-20T15:40:11;6.10;91.10
6627;DHT22;3349;49.830;8.748;2023-12-20T15:42:38;6.10;91.30
6627;DHT22;3349;49.830;8.748;2023-12-20T15:45:06;6.00;91.30
6627;DHT22;3349;49.830;8.748;2023-12-20T15:47:35;6.00;91.30
6627;DHT22;3349;49.830;8.748;2023-12-20T15:50:02;6.00;91.30
6627;DHT22;3349;49.830;8.748;2023-12-20T15:52:29;6.00;91.40
6627;DHT22;3349;49.830;8.748;2023-12-20T15:54:56;6.10;91.30
6627;DHT22;3349;49.830;8.748;2023-12-20T15:57:22;6.10;91.30
6627;DHT22;3349;49.830;8.748;2023-12-20T15:59:49;6.00;91.40
6627;DHT22;3349;49.830;8.748;2023-12-20T16:02:16;6.00;91.30
6627;DHT22;3349;49.830;8.748;2023-12-20T16:04:45;6.00;91.50
6627;DHT22;3349;49.830;8.748;2023-12-20T16:07:12;6.00;91.90
6627;DHT22;3349;49.830;8.748;2023-12-20T16:09:38;6.00;91.90
6627;DHT22;3349;49.830;8.748;2023-12-20T16:12:06;6.00;92.00
6627;DHT22;3349;49.830;8.748;2023-12-20T16:14:32;6.10;91.90
6627;DHT22;3349;49.830;8.748;2023-12-20T16:16:59;6.10;91.50